createdAt,value
2023-08-29T00:00:36.014Z,5.15
2023-08-29T00:03:06.239Z,4.75
2023-08-29T00:05:34.381Z,5.05
2023-08-29T00:08:02.641Z,4.93
2023-08-29T00:10:31.855Z,5.35
2023-08-29T00:12:59.969Z,7.10
2023-08-29T00:15:28.092Z,5.05
2023-08-29T00:17:56.281Z,5.15
2023-08-29T00:20:27.562Z,4.38
2023-08-29T00:22:56.966Z,4.93
2023-08-29T00:25:24.981Z,4.43
2023-08-29T00:27:53.180Z,4.85
2023-08-29T00:30:21.232Z,4.78
2023-08-29T00:32:49.242Z,6.53
2023-08-29T00:35:17.517Z,3.80
2023-08-29T00:37:47.245Z,4.95
2023-08-29T00:40:15.339Z,3.90
2023-08-29T00:42:43.281Z,5.03
2023-08-29T00:45:12.193Z,4.15
2023-08-29T00:47:40.547Z,6.03
2023-08-29T00:50:10.206Z,4.03
2023-08-29T00:52:38.425Z,4.72
2023-08-29T00:55:10.634Z,4.63
2023-08-29T00:57:38.737Z,3.95
2023-08-29T01:00:08.849Z,5.40
2023-08-29T01:02:37.486Z,4.03
2023-08-29T01:05:06.418Z,4.05
2023-08-29T01:07:34.722Z,5.82
2023-08-29T01:10:02.872Z,4.47
2023-08-29T01:12:44.056Z,4.40
2023-08-29T01:15:18.317Z,16.13
2023-08-29T01:17:50.892Z,5.63
2023-08-29T01:20:20.034Z,5.30
2023-08-29T01:23:13.184Z,5.32
2023-08-29T01:25:50.848Z,5.22
2023-08-29T01:28:20.963Z,5.05
2023-08-29T01:30:49.620Z,4.18
2023-08-29T01:33:17.844Z,5.03
2023-08-29T01:35:48.206Z,5.95
2023-08-29T01:38:18.649Z,5.40
2023-08-29T01:40:47.516Z,5.90
2023-08-29T01:43:15.638Z,5.85
2023-08-29T01:45:45.109Z,6.35
2023-08-29T01:48:13.670Z,5.50
2023-08-29T01:50:43.491Z,6.55
2023-08-29T01:53:13.022Z,7.10
2023-08-29T01:55:42.226Z,6.50
2023-08-29T01:58:11.481Z,6.57
2023-08-29T02:00:40.326Z,6.68
2023-08-29T02:03:11.095Z,7.63
2023-08-29T02:05:39.161Z,8.65
2023-08-29T02:08:08.127Z,8.35
2023-08-29T02:10:36.490Z,7.00
2023-08-29T02:13:04.824Z,6.35
2023-08-29T02:15:33.018Z,8.93
2023-08-29T02:18:01.348Z,7.97
2023-08-29T02:20:31.307Z,8.45
2023-08-29T02:22:59.789Z,10.73
2023-08-29T02:25:30.124Z,7.60
2023-08-29T02:27:58.322Z,8.43
2023-08-29T02:30:28.796Z,8.27
2023-08-29T02:32:57.167Z,8.20
2023-08-29T02:35:25.505Z,9.63
2023-08-29T02:37:54.966Z,8.52
2023-08-29T02:40:23.840Z,6.88
2023-08-29T02:42:51.843Z,7.70
2023-08-29T02:45:19.786Z,8.35
2023-08-29T02:47:47.798Z,7.60
2023-08-29T02:50:15.808Z,7.88
2023-08-29T02:52:44.067Z,8.98
2023-08-29T02:55:13.689Z,8.68
2023-08-29T02:57:42.018Z,8.13
2023-08-29T03:00:12.058Z,10.27
2023-08-29T03:02:40.112Z,9.32
2023-08-29T03:05:08.832Z,7.20
2023-08-29T03:07:36.901Z,7.40
2023-08-29T03:10:05.400Z,11.57
2023-08-29T03:12:35.419Z,8.55
2023-08-29T03:15:03.690Z,7.63
2023-08-29T03:17:32.143Z,8.25
2023-08-29T03:20:01.750Z,7.43
2023-08-29T03:22:30.115Z,9.20
2023-08-29T03:24:58.176Z,8.35
2023-08-29T03:27:27.216Z,9.57
2023-08-29T03:29:56.886Z,10.73
2023-08-29T03:32:26.947Z,10.00
2023-08-29T03:34:55.661Z,8.77
2023-08-29T03:37:23.708Z,8.50
2023-08-29T03:39:51.706Z,7.95
2023-08-29T03:42:19.961Z,9.85
2023-08-29T03:44:48.415Z,12.70
2023-08-29T03:47:19.235Z,14.48
2023-08-29T03:49:47.333Z,12.30
2023-08-29T03:52:23.903Z,9.73
2023-08-29T03:54:54.592Z,8.30
2023-08-29T03:57:23.130Z,9.43
2023-08-29T03:59:51.083Z,8.13
2023-08-29T04:02:23.109Z,9.82
2023-08-29T04:04:53.714Z,9.52
2023-08-29T04:07:22.609Z,10.07
2023-08-29T04:09:50.515Z,10.30
2023-08-29T04:12:18.629Z,9.68
2023-08-29T04:14:46.551Z,10.48
2023-08-29T04:17:15.095Z,9.85
2023-08-29T04:19:45.420Z,13.95
2023-08-29T04:22:13.274Z,10.55
2023-08-29T04:24:41.476Z,10.65
2023-08-29T04:27:09.615Z,12.38
2023-08-29T04:29:37.593Z,8.95
2023-08-29T04:32:06.433Z,9.98
2023-08-29T04:34:34.947Z,12.45
2023-08-29T04:37:05.628Z,10.50
2023-08-29T04:39:33.614Z,11.10
2023-08-29T04:42:01.736Z,12.95
2023-08-29T04:44:31.619Z,10.63
2023-08-29T04:46:59.759Z,19.83
2023-08-29T04:49:27.932Z,11.05
2023-08-29T04:51:57.218Z,13.25
2023-08-29T04:54:28.208Z,12.43
2023-08-29T04:56:56.440Z,12.32
2023-08-29T04:59:26.110Z,12.18
2023-08-29T05:01:54.424Z,14.50
2023-08-29T05:04:22.659Z,11.05
2023-08-29T05:06:51.083Z,13.35
2023-08-29T05:09:20.581Z,14.80
2023-08-29T05:11:50.762Z,16.13
2023-08-29T05:14:19.602Z,12.25
2023-08-29T05:16:47.757Z,12.90
2023-08-29T05:19:16.042Z,12.68
2023-08-29T05:21:45.220Z,15.07
2023-08-29T05:24:13.586Z,12.00
2023-08-29T05:26:41.925Z,13.27
2023-08-29T05:29:10.293Z,11.82
2023-08-29T05:31:38.878Z,10.70
2023-08-29T05:34:07.318Z,10.82
2023-08-29T05:36:35.880Z,9.75
2023-08-29T05:39:04.337Z,10.98
2023-08-29T05:41:33.957Z,10.52
2023-08-29T05:44:02.852Z,10.88
2023-08-29T05:46:33.217Z,11.32
2023-08-29T05:49:01.671Z,9.90
2023-08-29T05:51:30.172Z,8.80
2023-08-29T05:53:58.460Z,10.25
2023-08-29T05:56:26.912Z,9.73
2023-08-29T05:58:55.431Z,9.48
2023-08-29T06:01:23.471Z,8.25
2023-08-29T06:03:54.448Z,10.00
2023-08-29T06:06:23.316Z,10.30
2023-08-29T06:08:51.400Z,11.85
2023-08-29T06:11:19.770Z,8.57
2023-08-29T06:13:48.197Z,13.40
2023-08-29T06:16:17.300Z,13.55
2023-08-29T06:18:45.990Z,11.13
2023-08-29T06:21:15.688Z,10.93
2023-08-29T06:23:43.844Z,10.13
2023-08-29T06:26:12.079Z,12.63
2023-08-29T06:28:40.331Z,10.32
2023-08-29T06:31:10.109Z,8.95
2023-08-29T06:33:39.338Z,9.15
2023-08-29T06:36:08.300Z,10.25
2023-08-29T06:38:40.412Z,9.15
2023-08-29T06:41:08.501Z,10.95
2023-08-29T06:43:36.764Z,8.85
2023-08-29T06:46:05.300Z,10.60
2023-08-29T06:48:33.618Z,10.80
2023-08-29T06:51:02.677Z,9.20
2023-08-29T06:53:31.124Z,10.02
2023-08-29T06:56:02.037Z,9.77
2023-08-29T06:58:30.332Z,11.43
2023-08-29T07:00:59.086Z,10.50
2023-08-29T07:03:27.334Z,11.75
2023-08-29T07:05:56.394Z,11.43
2023-08-29T07:08:26.013Z,8.23
2023-08-29T07:10:54.307Z,8.98
2023-08-29T07:13:25.279Z,12.82
2023-08-29T07:15:53.253Z,9.57
2023-08-29T07:18:21.556Z,12.65
2023-08-29T07:20:51.607Z,9.45
2023-08-29T07:23:19.705Z,9.30
2023-08-29T07:25:48.123Z,9.02
2023-08-29T07:28:16.523Z,8.63
2023-08-29T07:30:47.473Z,8.43
2023-08-29T07:33:16.803Z,11.00
2023-08-29T07:35:46.927Z,8.13
2023-08-29T07:38:15.614Z,8.27
2023-08-29T07:40:47.316Z,10.07
2023-08-29T07:43:17.050Z,10.88
2023-08-29T07:45:49.253Z,10.02
2023-08-29T07:48:17.806Z,10.73
2023-08-29T07:50:46.134Z,8.07
2023-08-29T07:53:14.716Z,11.55
2023-08-29T07:55:43.606Z,7.40
2023-08-29T07:58:11.769Z,8.15
2023-08-29T08:00:41.721Z,7.88
2023-08-29T08:03:13.589Z,8.30
2023-08-29T08:05:42.744Z,7.07
2023-08-29T08:08:12.160Z,6.00
2023-08-29T08:10:43.466Z,7.03
2023-08-29T08:13:11.402Z,6.65
2023-08-29T08:15:40.261Z,7.00
2023-08-29T08:18:09.483Z,6.28
2023-08-29T08:20:40.003Z,8.35
2023-08-29T08:23:08.548Z,7.57
2023-08-29T08:25:37.912Z,7.50
2023-08-29T08:28:07.807Z,6.57
2023-08-29T08:30:39.013Z,6.00
2023-08-29T08:33:07.487Z,8.07
2023-08-29T08:35:51.902Z,8.73
2023-08-29T08:38:24.972Z,6.72
2023-08-29T08:40:57.830Z,7.72
2023-08-29T08:43:26.626Z,9.55
2023-08-29T08:45:55.612Z,6.38
2023-08-29T08:48:24.675Z,8.80
2023-08-29T08:50:54.304Z,7.18
2023-08-29T08:53:22.917Z,7.40
2023-08-29T08:55:51.830Z,8.30
2023-08-29T08:58:20.151Z,8.43
2023-08-29T09:00:48.539Z,7.95
2023-08-29T09:03:16.552Z,8.18
2023-08-29T09:05:44.859Z,9.85
2023-08-29T09:08:15.622Z,6.97
2023-08-29T09:10:44.126Z,9.05
2023-08-29T09:13:17.374Z,7.47
2023-08-29T09:15:47.558Z,7.35
2023-08-29T09:18:24.782Z,7.97
2023-08-29T09:20:55.356Z,7.13
2023-08-29T09:23:26.873Z,4.13
2023-08-29T09:25:56.881Z,2.97
2023-08-29T09:28:27.674Z,2.33
2023-08-29T09:30:56.088Z,3.40
2023-08-29T09:33:24.749Z,3.00
2023-08-29T09:35:54.284Z,3.03
2023-08-29T09:38:22.969Z,3.08
2023-08-29T09:40:55.709Z,3.28
2023-08-29T09:43:24.022Z,3.47
2023-08-29T09:45:54.045Z,2.75
2023-08-29T09:48:22.726Z,3.67
2023-08-29T09:50:52.415Z,4.88
2023-08-29T09:53:22.689Z,4.38
2023-08-29T09:56:06.630Z,3.78
2023-08-29T09:58:35.909Z,3.53
2023-08-29T10:01:06.333Z,3.92
2023-08-29T10:03:36.802Z,3.30
2023-08-29T10:06:07.692Z,2.75
2023-08-29T10:08:44.180Z,2.55
2023-08-29T10:11:13.615Z,3.33
2023-08-29T10:13:43.826Z,2.83
2023-08-29T10:16:14.021Z,5.80
2023-08-29T10:18:42.845Z,3.08
2023-08-29T10:21:13.794Z,3.72
2023-08-29T10:23:43.387Z,3.40
2023-08-29T10:26:14.310Z,3.17
2023-08-29T10:28:43.708Z,2.50
2023-08-29T10:31:12.856Z,3.78
2023-08-29T10:33:41.506Z,3.45
2023-08-29T10:36:11.875Z,4.15
2023-08-29T10:38:41.341Z,3.35
2023-08-29T10:41:11.857Z,2.53
2023-08-29T10:43:41.333Z,3.10
2023-08-29T10:46:16.373Z,3.70
2023-08-29T10:48:52.475Z,3.45
2023-08-29T10:51:26.158Z,3.95
2023-08-29T10:53:58.417Z,4.20
2023-08-29T10:56:29.465Z,5.28
2023-08-29T10:59:01.682Z,4.50
2023-08-29T11:01:32.238Z,4.57
2023-08-29T11:04:02.702Z,3.05
2023-08-29T11:06:54.725Z,1.65
2023-08-29T11:09:24.876Z,3.03
2023-08-29T11:12:08.539Z,2.03
2023-08-29T11:14:53.636Z,2.78
2023-08-29T11:17:25.638Z,1.85
2023-08-29T11:19:55.251Z,1.60
2023-08-29T11:22:27.054Z,1.58
2023-08-29T11:24:56.865Z,1.88
2023-08-29T11:27:26.179Z,1.20
2023-08-29T11:30:11.161Z,3.55
2023-08-29T11:32:51.978Z,1.50
2023-08-29T11:35:20.549Z,1.92
2023-08-29T11:37:49.602Z,2.55
2023-08-29T11:40:25.907Z,1.20
2023-08-29T11:43:48.357Z,2.25
2023-08-29T11:46:00.399Z,1.50
2023-08-29T11:48:31.201Z,1.30
2023-08-29T11:51:02.085Z,1.65
2023-08-29T11:53:32.391Z,2.00
2023-08-29T11:56:01.487Z,1.50
2023-08-29T11:58:30.233Z,1.25
2023-08-29T12:01:03.050Z,1.08
2023-08-29T12:03:31.298Z,1.60
2023-08-29T12:05:59.815Z,1.15
2023-08-29T12:08:39.617Z,1.45
2023-08-29T12:11:08.941Z,1.70
2023-08-29T12:13:38.054Z,1.10
2023-08-29T12:16:17.526Z,1.50
2023-08-29T12:18:46.157Z,1.73
2023-08-29T12:21:16.326Z,1.65
2023-08-29T12:23:45.815Z,1.30
2023-08-29T12:26:15.641Z,1.20
2023-08-29T12:28:44.572Z,1.73
2023-08-29T12:31:14.490Z,1.52
2023-08-29T12:33:42.827Z,1.50
2023-08-29T12:36:11.612Z,1.42
2023-08-29T12:38:40.334Z,1.73
2023-08-29T12:41:08.871Z,2.10
2023-08-29T12:43:37.275Z,1.30
2023-08-29T12:46:06.784Z,1.83
2023-08-29T12:48:36.705Z,1.92
2023-08-29T12:51:05.671Z,2.85
2023-08-29T12:53:34.122Z,2.25
2023-08-29T12:56:03.051Z,2.33
2023-08-29T12:58:31.260Z,1.63
2023-08-29T13:00:59.467Z,1.48
2023-08-29T13:03:27.779Z,1.85
2023-08-29T13:05:57.878Z,1.67
2023-08-29T13:08:26.301Z,1.85
2023-08-29T13:10:54.987Z,1.65
2023-08-29T13:13:23.071Z,1.13
2023-08-29T13:15:51.990Z,1.65
2023-08-29T13:18:20.951Z,2.10
2023-08-29T13:20:49.263Z,1.30
2023-08-29T13:23:18.698Z,1.65
2023-08-29T13:25:48.190Z,1.52
2023-08-29T13:28:16.663Z,1.63
2023-08-29T13:30:45.538Z,1.15
2023-08-29T13:33:13.657Z,1.15
2023-08-29T13:35:41.833Z,1.52
2023-08-29T13:38:10.663Z,1.40
2023-08-29T13:40:42.320Z,1.45
2023-08-29T13:43:12.478Z,3.03
2023-08-29T13:45:40.537Z,1.75
2023-08-29T13:48:12.029Z,1.13
2023-08-29T13:50:41.377Z,1.60
2023-08-29T13:53:13.837Z,0.90
2023-08-29T13:55:43.639Z,1.25
2023-08-29T13:58:12.023Z,1.30
2023-08-29T14:00:41.205Z,1.75
2023-08-29T14:03:21.626Z,1.50
2023-08-29T14:06:00.067Z,1.13
2023-08-29T14:08:28.118Z,1.48
2023-08-29T14:11:02.748Z,1.30
2023-08-29T14:13:33.535Z,1.40
2023-08-29T14:16:04.581Z,1.20
2023-08-29T14:18:32.863Z,1.98
2023-08-29T14:21:00.897Z,1.73
2023-08-29T14:23:29.345Z,1.70
2023-08-29T14:25:57.947Z,1.38
2023-08-29T14:28:29.069Z,0.93
2023-08-29T14:30:57.224Z,2.20
2023-08-29T14:33:25.444Z,0.70
2023-08-29T14:35:56.792Z,1.30
2023-08-29T14:38:25.366Z,0.95
2023-08-29T14:40:53.856Z,1.83
2023-08-29T14:43:22.110Z,1.45
2023-08-29T14:45:52.247Z,1.17
2023-08-29T14:48:20.423Z,1.05
2023-08-29T14:50:48.721Z,1.00
2023-08-29T14:53:16.726Z,0.70
2023-08-29T14:55:44.868Z,0.80
2023-08-29T14:58:13.261Z,1.00
2023-08-29T15:00:43.890Z,0.93
2023-08-29T15:03:14.175Z,0.68
2023-08-29T15:05:42.684Z,0.70
2023-08-29T15:08:11.208Z,1.27
2023-08-29T15:10:40.490Z,1.35
2023-08-29T15:13:09.583Z,2.85
2023-08-29T15:15:39.899Z,1.02
2023-08-29T15:18:08.568Z,1.65
2023-08-29T15:20:39.865Z,1.15
2023-08-29T15:23:09.124Z,0.70
2023-08-29T15:25:37.217Z,0.93
2023-08-29T15:28:06.384Z,0.98
2023-08-29T15:30:36.157Z,1.50
2023-08-29T15:33:04.986Z,0.85
2023-08-29T15:35:33.115Z,1.27
2023-08-29T15:38:03.268Z,2.55
2023-08-29T15:40:31.433Z,1.30
2023-08-29T15:43:00.338Z,0.80
2023-08-29T15:45:28.333Z,0.80
2023-08-29T15:47:57.081Z,1.30
2023-08-29T15:50:25.431Z,1.02
2023-08-29T15:52:53.577Z,1.20
2023-08-29T15:55:24.400Z,1.48
2023-08-29T15:57:52.492Z,0.60
2023-08-29T16:00:20.952Z,0.80
2023-08-29T16:02:49.339Z,1.30
2023-08-29T16:05:19.761Z,0.57
2023-08-29T16:07:50.193Z,0.93
2023-08-29T16:10:18.782Z,1.00
2023-08-29T16:12:48.301Z,1.23
2023-08-29T16:15:17.652Z,2.30
2023-08-29T16:17:46.143Z,1.13
2023-08-29T16:20:14.709Z,2.75
2023-08-29T16:22:43.075Z,2.72
2023-08-29T16:25:12.942Z,1.00
2023-08-29T16:27:41.064Z,2.40
2023-08-29T16:30:12.568Z,2.90
2023-08-29T16:32:41.737Z,1.20
2023-08-29T16:35:10.322Z,1.30
2023-08-29T16:37:39.427Z,1.15
2023-08-29T16:40:09.841Z,1.17
2023-08-29T16:42:37.857Z,2.30
2023-08-29T16:45:07.543Z,1.15
2023-08-29T16:47:37.166Z,0.80
2023-08-29T16:50:06.128Z,1.02
2023-08-29T16:52:34.234Z,1.42
2023-08-29T16:55:02.943Z,0.88
2023-08-29T16:57:33.770Z,1.83
2023-08-29T17:00:04.147Z,1.15
2023-08-29T17:02:32.929Z,1.02
2023-08-29T17:05:02.518Z,2.72
2023-08-29T17:07:30.690Z,1.10
2023-08-29T17:09:59.547Z,1.20
2023-08-29T17:12:29.259Z,1.23
2023-08-29T17:14:57.820Z,2.38
2023-08-29T17:17:27.066Z,1.33
2023-08-29T17:19:55.192Z,2.03
2023-08-29T17:22:25.261Z,1.35
2023-08-29T17:24:53.511Z,1.15
2023-08-29T17:27:21.683Z,2.40
2023-08-29T17:29:49.871Z,2.13
2023-08-29T17:32:18.604Z,1.77
2023-08-29T17:34:47.210Z,1.70
2023-08-29T17:37:15.470Z,2.85
2023-08-29T17:39:44.878Z,2.30
2023-08-29T17:42:12.942Z,1.10
2023-08-29T17:44:40.983Z,2.05
2023-08-29T17:47:09.079Z,0.75
2023-08-29T17:49:37.206Z,1.23
2023-08-29T17:52:05.827Z,0.95
2023-08-29T17:54:34.155Z,1.15
2023-08-29T17:57:03.589Z,1.00
2023-08-29T17:59:31.629Z,1.67
2023-08-29T18:01:59.908Z,1.85
2023-08-29T18:04:28.060Z,1.85
2023-08-29T18:06:56.071Z,2.28
2023-08-29T18:09:24.241Z,2.63
2023-08-29T18:11:52.499Z,4.05
2023-08-29T18:14:22.316Z,2.05
2023-08-29T18:16:51.316Z,2.50
2023-08-29T18:19:20.659Z,1.80
2023-08-29T18:21:49.173Z,2.88
2023-08-29T18:24:18.319Z,3.20
2023-08-29T18:26:46.986Z,1.92
2023-08-29T18:29:15.099Z,2.92
2023-08-29T18:31:44.967Z,2.15
2023-08-29T18:34:13.171Z,2.05
2023-08-29T18:36:41.722Z,3.40
2023-08-29T18:39:10.070Z,2.17
2023-08-29T18:41:38.580Z,3.42
2023-08-29T18:44:06.955Z,3.42
2023-08-29T18:46:35.973Z,2.97
2023-08-29T18:49:06.121Z,2.38
2023-08-29T18:51:34.181Z,2.97
2023-08-29T18:54:02.342Z,2.08
2023-08-29T18:56:30.584Z,2.20
2023-08-29T18:58:58.982Z,3.20
2023-08-29T19:01:27.291Z,3.22
2023-08-29T19:03:55.287Z,2.67
2023-08-29T19:06:24.834Z,4.15
2023-08-29T19:08:54.387Z,2.55
2023-08-29T19:11:23.075Z,3.95
2023-08-29T19:13:52.391Z,3.70
2023-08-29T19:16:20.739Z,1.60
2023-08-29T19:18:48.853Z,1.65
2023-08-29T19:21:17.337Z,2.40
2023-08-29T19:23:47.073Z,2.47
2023-08-29T19:26:15.299Z,1.88
2023-08-29T19:28:43.624Z,3.20
2023-08-29T19:31:11.858Z,1.95
2023-08-29T19:33:40.378Z,2.75
2023-08-29T19:36:13.083Z,1.88
2023-08-29T19:38:42.259Z,1.98
2023-08-29T19:41:12.363Z,1.70
2023-08-29T19:43:40.642Z,2.25
2023-08-29T19:46:09.087Z,1.73
2023-08-29T19:48:37.302Z,1.55
2023-08-29T19:51:05.390Z,3.80
2023-08-29T19:53:36.624Z,1.60
2023-08-29T19:56:07.592Z,1.65
2023-08-29T19:58:37.194Z,2.65
2023-08-29T20:01:08.112Z,2.15
2023-08-29T20:03:36.470Z,1.40
2023-08-29T20:06:04.600Z,3.20
2023-08-29T20:08:32.971Z,1.13
2023-08-29T20:11:04.900Z,2.60
2023-08-29T20:13:33.217Z,1.70
2023-08-29T20:16:05.347Z,2.10
2023-08-29T20:18:33.392Z,5.53
2023-08-29T20:21:04.991Z,2.67
2023-08-29T20:23:39.710Z,2.22
2023-08-29T20:26:18.284Z,2.08
2023-08-29T20:28:46.873Z,1.83
2023-08-29T20:31:16.445Z,2.25
2023-08-29T20:33:44.790Z,1.52
2023-08-29T20:36:14.407Z,2.55
2023-08-29T20:38:42.589Z,1.30
2023-08-29T20:41:10.890Z,1.60
2023-08-29T20:43:39.221Z,1.80
2023-08-29T20:46:07.539Z,1.63
2023-08-29T20:48:37.038Z,1.95
2023-08-29T20:51:05.335Z,1.95
2023-08-29T20:53:37.292Z,2.30
2023-08-29T20:56:05.791Z,1.88
2023-08-29T20:58:33.913Z,1.92
2023-08-29T21:01:03.330Z,2.03
2023-08-29T21:03:33.979Z,3.92
2023-08-29T21:06:03.636Z,2.08
2023-08-29T21:08:31.875Z,4.03
2023-08-29T21:10:59.932Z,3.42
2023-08-29T21:13:28.007Z,1.35
2023-08-29T21:15:56.297Z,1.73
2023-08-29T21:18:24.685Z,2.28
2023-08-29T21:20:54.408Z,2.90
2023-08-29T21:23:25.375Z,2.40
2023-08-29T21:25:55.276Z,1.75
2023-08-29T21:28:24.995Z,1.98
2023-08-29T21:30:54.273Z,1.70
2023-08-29T21:33:24.500Z,1.85
2023-08-29T21:35:53.218Z,1.80
2023-08-29T21:38:21.394Z,5.25
2023-08-29T21:40:50.809Z,2.08
2023-08-29T21:43:21.516Z,1.65
2023-08-29T21:46:00.560Z,1.23
2023-08-29T21:48:30.625Z,2.85
2023-08-29T21:50:59.159Z,1.58
2023-08-29T21:53:27.303Z,2.72
2023-08-29T21:55:58.398Z,1.40
2023-08-29T21:58:28.001Z,1.45
2023-08-29T22:00:56.580Z,2.30
2023-08-29T22:03:25.791Z,1.75
2023-08-29T22:05:54.426Z,1.48
2023-08-29T22:08:23.111Z,1.75
2023-08-29T22:10:52.263Z,2.35
2023-08-29T22:13:22.097Z,1.50
2023-08-29T22:15:52.215Z,1.48
2023-08-29T22:18:21.152Z,1.70
2023-08-29T22:20:50.454Z,2.10
2023-08-29T22:23:18.489Z,1.60
2023-08-29T22:25:46.579Z,1.58
2023-08-29T22:28:14.687Z,2.95
2023-08-29T22:30:44.248Z,2.08
2023-08-29T22:33:12.350Z,1.65
2023-08-29T22:35:42.985Z,1.60
2023-08-29T22:38:12.441Z,1.95
2023-08-29T22:40:40.812Z,1.88
2023-08-29T22:43:09.019Z,2.17
2023-08-29T22:45:37.105Z,3.08
2023-08-29T22:48:07.804Z,2.10
2023-08-29T22:50:37.403Z,1.40
2023-08-29T22:53:07.141Z,2.10
2023-08-29T22:55:37.788Z,3.40
2023-08-29T22:58:06.993Z,2.20
2023-08-29T23:00:37.257Z,2.55
2023-08-29T23:03:07.212Z,2.15
2023-08-29T23:05:35.564Z,1.75
2023-08-29T23:08:03.657Z,2.58
2023-08-29T23:10:33.013Z,1.58
2023-08-29T23:13:01.142Z,1.85
2023-08-29T23:15:29.852Z,2.00
2023-08-29T23:17:57.912Z,2.30
2023-08-29T23:20:27.303Z,2.50
2023-08-29T23:22:55.544Z,2.03
2023-08-29T23:25:23.657Z,2.47
2023-08-29T23:27:52.146Z,2.75
2023-08-29T23:30:20.528Z,2.55
2023-08-29T23:32:49.530Z,2.53
2023-08-29T23:35:19.684Z,2.60
2023-08-29T23:37:49.200Z,3.10
2023-08-29T23:40:17.583Z,2.58
2023-08-29T23:42:46.685Z,2.00
2023-08-29T23:45:15.084Z,2.47
2023-08-29T23:47:43.424Z,2.88
2023-08-29T23:50:12.669Z,4.32
2023-08-29T23:52:41.054Z,3.65
2023-08-29T23:55:10.648Z,3.15
2023-08-29T23:57:38.824Z,3.85
